sensor_id;sensor_type;location;lat;lon;timestamp;pressure;altitude;pressure_sealevel;temperature;humidity
28428;BME280;15662;49.128;8.520;2023-10-09T00:00:14;101027.72;;;20.22;47.44
28428;BME280;15662;49.128;8.520;2023-10-09T00:03:01;101036.03;;;20.17;47.61
28428;BME280;15662;49.128;8.520;2023-10-09T00:05:32;101024.81;;;20.09;47.63
28428;BME280;15662;49.128;8.520;2023-10-09T00:08:22;101024.06;;;20.07;47.63
28428;BME280;15662;49.128;8.520;2023-10-09T00:10:51;101027.50;;;20.09;47.63
28428;BME280;15662;49.128;8.520;2023-10-09T00:13:26;101029.59;;;20.04;47.71
28428;BME280;15662;49.128;8.520;2023-10-09T00:16:06;101028.72;;;20.03;47.81
28428;BME280;15662;49.128;8.520;2023-10-09T00:18:42;101032.53;;;19.99;47.90
28428;BME280;15662;49.128;8.520;2023-10-09T00:21:18;101016.56;;;19.96;47.91
28428;BME280;15662;49.128;8.520;2023-10-09T00:23:50;101024.66;;;19.96;47.83
28428;BME280;15662;49.128;8.520;2023-10-09T00:26:27;101014.91;;;19.94;47.76
28428;BME280;15662;49.128;8.520;2023-10-09T00:28:58;101017.84;;;19.89;47.60
28428;BME280;15662;49.128;8.520;2023-10-09T00:31:26;101010.47;;;19.93;47.65
28428;BME280;15662;49.128;8.520;2023-10-09T00:34:00;101011.44;;;19.92;47.62
28428;BME280;15662;49.128;8.520;2023-10-09T00:36:29;101019.41;;;19.93;47.79
28428;BME280;15662;49.128;8.520;2023-10-09T00:38:57;101007.78;;;19.93;47.58
28428;BME280;15662;49.128;8.520;2023-10-09T00:41:28;101005.97;;;19.93;47.78
28428;BME280;15662;49.128;8.520;2023-10-09T00:43:56;100999.72;;;19.93;47.69
28428;BME280;15662;49.128;8.520;2023-10-09T00:46:27;101006.81;;;19.94;47.70
28428;BME280;15662;49.128;8.520;2023-10-09T00:48:59;100998.59;;;19.97;47.86
28428;BME280;15662;49.128;8.520;2023-10-09T00:51:30;100998.06;;;19.90;47.68
28428;BME280;15662;49.128;8.520;2023-10-09T00:54:05;101001.44;;;19.94;47.67
28428;BME280;15662;49.128;8.520;2023-10-09T00:56:36;101004.94;;;19.96;47.68
28428;BME280;15662;49.128;8.520;2023-10-09T00:59:15;100994.94;;;19.98;47.61
28428;BME280;15662;49.128;8.520;2023-10-09T01:01:44;100992.59;;;19.92;47.75
28428;BME280;15662;49.128;8.520;2023-10-09T01:04:38;101000.59;;;19.93;47.86
28428;BME280;15662;49.128;8.520;2023-10-09T01:07:10;100997.13;;;19.91;47.87
28428;BME280;15662;49.128;8.520;2023-10-09T01:09:53;100984.06;;;19.83;47.96
28428;BME280;15662;49.128;8.520;2023-10-09T01:12:23;100984.06;;;19.83;47.79
28428;BME280;15662;49.128;8.520;2023-10-09T01:14:50;100977.06;;;19.81;48.07
28428;BME280;15662;49.128;8.520;2023-10-09T01:17:23;100986.84;;;19.82;48.09
28428;BME280;15662;49.128;8.520;2023-10-09T01:20:05;100971.97;;;19.75;48.23
28428;BME280;15662;49.128;8.520;2023-10-09T01:22:45;100983.63;;;19.75;48.09
28428;BME280;15662;49.128;8.520;2023-10-09T01:25:14;100978.06;;;19.78;48.33
28428;BME280;15662;49.128;8.520;2023-10-09T01:27:43;100978.78;;;19.82;48.08
28428;BME280;15662;49.128;8.520;2023-10-09T01:30:11;100974.28;;;19.82;48.36
28428;BME280;15662;49.128;8.520;2023-10-09T01:32:41;100972.44;;;19.83;48.29
28428;BME280;15662;49.128;8.520;2023-10-09T01:35:12;100966.19;;;19.82;48.36
28428;BME280;15662;49.128;8.520;2023-10-09T01:37:48;100962.75;;;19.80;48.11
28428;BME280;15662;49.128;8.520;2023-10-09T01:40:19;100969.50;;;19.88;48.47
28428;BME280;15662;49.128;8.520;2023-10-09T01:43:03;100972.97;;;19.90;48.27
28428;BME280;15662;49.128;8.520;2023-10-09T01:45:31;100965.69;;;19.92;48.47
28428;BME280;15662;49.128;8.520;2023-10-09T01:48:10;100964.91;;;19.90;48.62
28428;BME280;15662;49.128;8.520;2023-10-09T01:50:40;100960.22;;;19.93;48.37
28428;BME280;15662;49.128;8.520;2023-10-09T01:53:09;100966.56;;;19.92;48.66
28428;BME280;15662;49.128;8.520;2023-10-09T01:55:37;100950.41;;;19.92;48.70
28428;BME280;15662;49.128;8.520;2023-10-09T01:58:08;100962.16;;;19.91;48.44
28428;BME280;15662;49.128;8.520;2023-10-09T02:00:52;100950.75;;;19.86;48.75
28428;BME280;15662;49.128;8.520;2023-10-09T02:03:24;100958.66;;;19.89;48.85
28428;BME280;15662;49.128;8.520;2023-10-09T02:05:53;100955.19;;;19.87;48.85
28428;BME280;15662;49.128;8.520;2023-10-09T02:08:44;100955.44;;;19.82;48.68
28428;BME280;15662;49.128;8.520;2023-10-09T02:11:17;100952.66;;;19.84;48.85
28428;BME280;15662;49.128;8.520;2023-10-09T02:14:04;100950.84;;;19.84;48.65
28428;BME280;15662;49.128;8.520;2023-10-09T02:16:47;100947.28;;;19.84;48.80
28428;BME280;15662;49.128;8.520;2023-10-09T02:19:33;100940.16;;;19.83;48.97
28428;BME280;15662;49.128;8.520;2023-10-09T02:22:02;100953.53;;;19.84;48.99
28428;BME280;15662;49.128;8.520;2023-10-09T02:24:45;100951.63;;;19.87;48.90
28428;BME280;15662;49.128;8.520;2023-10-09T02:27:19;100939.22;;;19.84;48.68
28428;BME280;15662;49.128;8.520;2023-10-09T02:30:07;100959.63;;;19.88;48.66
28428;BME280;15662;49.128;8.520;2023-10-09T02:32:47;100946.16;;;19.88;48.97
28428;BME280;15662;49.128;8.520;2023-10-09T02:35:20;100940.88;;;19.87;48.75
28428;BME280;15662;49.128;8.520;2023-10-09T02:38:06;100942.69;;;19.86;48.89
28428;BME280;15662;49.128;8.520;2023-10-09T02:40:37;100944.19;;;19.92;48.81
28428;BME280;15662;49.128;8.520;2023-10-09T02:43:20;100933.75;;;19.86;48.95
28428;BME280;15662;49.128;8.520;2023-10-09T02:45:48;100935.31;;;19.90;49.13
28428;BME280;15662;49.128;8.520;2023-10-09T02:48:19;100928.19;;;19.89;49.06
28428;BME280;15662;49.128;8.520;2023-10-09T02:50:48;100915.84;;;19.84;48.91
28428;BME280;15662;49.128;8.520;2023-10-09T02:53:18;100927.31;;;19.88;48.82
28428;BME280;15662;49.128;8.520;2023-10-09T02:55:56;100928.19;;;19.89;49.14
28428;BME280;15662;49.128;8.520;2023-10-09T02:58:44;100922.03;;;19.87;48.94
28428;BME280;15662;49.128;8.520;2023-10-09T03:01:15;100925.50;;;19.89;48.88
28428;BME280;15662;49.128;8.520;2023-10-09T03:03:43;100927.22;;;19.90;48.97
28428;BME280;15662;49.128;8.520;2023-10-09T03:06:14;100918.44;;;19.70;49.26
28428;BME280;15662;49.128;8.520;2023-10-09T03:08:52;100929.31;;;19.84;48.99
28428;BME280;15662;49.128;8.520;2023-10-09T03:11:22;100926.47;;;19.88;48.85
28428;BME280;15662;49.128;8.520;2023-10-09T03:13:50;100923.63;;;19.91;48.92
28428;BME280;15662;49.128;8.520;2023-10-09T03:16:21;100928.91;;;19.92;48.89
28428;BME280;15662;49.128;8.520;2023-10-09T03:18:52;100921.59;;;19.94;48.92
28428;BME280;15662;49.128;8.520;2023-10-09T03:21:20;100919.09;;;19.91;48.98
28428;BME280;15662;49.128;8.520;2023-10-09T03:23:48;100919.09;;;19.91;49.06
28428;BME280;15662;49.128;8.520;2023-10-09T03:26:19;100927.31;;;19.88;48.78
28428;BME280;15662;49.128;8.520;2023-10-09T03:28:49;100924.53;;;19.90;49.14
28428;BME280;15662;49.128;8.520;2023-10-09T03:31:17;100925.50;;;19.89;49.08
28428;BME280;15662;49.128;8.520;2023-10-09T03:33:44;100927.31;;;19.88;49.09
28428;BME280;15662;49.128;8.520;2023-10-09T03:36:12;100912.16;;;19.87;48.97
28428;BME280;15662;49.128;8.520;2023-10-09T03:38:40;100913.97;;;19.87;48.95
28428;BME280;15662;49.128;8.520;2023-10-09T03:41:10;100923.00;;;19.86;48.87
28428;BME280;15662;49.128;8.520;2023-10-09T03:43:43;100919.50;;;19.83;49.12
28428;BME280;15662;49.128;8.520;2023-10-09T03:46:14;100912.50;;;19.81;49.08
28428;BME280;15662;49.128;8.520;2023-10-09T03:48:49;100907.19;;;19.79;49.22
28428;BME280;15662;49.128;8.520;2023-10-09T03:51:17;100919.75;;;19.79;49.14
28428;BME280;15662;49.128;8.520;2023-10-09T03:53:51;100934.25;;;19.76;48.99
28428;BME280;15662;49.128;8.520;2023-10-09T03:56:20;100932.69;;;19.72;49.24
28428;BME280;15662;49.128;8.520;2023-10-09T03:58:49;100944.22;;;19.74;48.96
28428;BME280;15662;49.128;8.520;2023-10-09T04:01:19;100941.72;;;19.71;49.05
28428;BME280;15662;49.128;8.520;2023-10-09T04:03:53;100937.25;;;19.70;49.04
28428;BME280;15662;49.128;8.520;2023-10-09T04:06:29;100942.75;;;19.69;49.03
28428;BME280;15662;49.128;8.520;2023-10-09T04:09:09;100944.56;;;19.68;48.98
28428;BME280;15662;49.128;8.520;2023-10-09T04:11:53;100943.78;;;19.66;49.02
28428;BME280;15662;49.128;8.520;2023-10-09T04:14:44;100947.69;;;19.61;48.99
28428;BME280;15662;49.128;8.520;2023-10-09T04:17:32;100947.81;;;19.57;49.07
28428;BME280;15662;49.128;8.520;2023-10-09T04:20:03;100935.31;;;19.56;49.07
28428;BME280;15662;49.128;8.520;2023-10-09T04:22:46;100930.88;;;19.55;48.79
28428;BME280;15662;49.128;8.520;2023-10-09T04:25:32;100944.31;;;19.55;48.74
28428;BME280;15662;49.128;8.520;2023-10-09T04:28:13;100934.22;;;19.43;48.90
28428;BME280;15662;49.128;8.520;2023-10-09T04:30:43;100929.81;;;19.42;48.83
28428;BME280;15662;49.128;8.520;2023-10-09T04:33:12;100940.06;;;19.51;48.84
28428;BME280;15662;49.128;8.520;2023-10-09T04:36:04;100937.53;;;19.48;48.71
28428;BME280;15662;49.128;8.520;2023-10-09T04:38:51;100932.41;;;19.44;49.12
28428;BME280;15662;49.128;8.520;2023-10-09T04:41:32;100935.19;;;19.42;49.05
28428;BME280;15662;49.128;8.520;2023-10-09T04:44:11;100928.84;;;19.43;49.05
28428;BME280;15662;49.128;8.520;2023-10-09T04:46:49;100920.94;;;19.40;49.06
28428;BME280;15662;49.128;8.520;2023-10-09T04:49:41;100919.56;;;19.33;49.08
28428;BME280;15662;49.128;8.520;2023-10-09T04:52:16;100914.03;;;19.36;49.08
28428;BME280;15662;49.128;8.520;2023-10-09T04:55:08;100917.81;;;19.32;49.25
28428;BME280;15662;49.128;8.520;2023-10-09T04:57:44;100922.31;;;19.31;49.13
28428;BME280;15662;49.128;8.520;2023-10-09T05:00:17;100916.25;;;19.28;49.12
28428;BME280;15662;49.128;8.520;2023-10-09T05:02:59;100926.84;;;19.31;49.33
28428;BME280;15662;49.128;8.520;2023-10-09T05:05:39;100916.34;;;19.26;49.29
28428;BME280;15662;49.128;8.520;2023-10-09T05:08:17;100921.53;;;19.29;49.56
28428;BME280;15662;49.128;8.520;2023-10-09T05:11:00;100918.13;;;19.26;49.60
28428;BME280;15662;49.128;8.520;2023-10-09T05:13:34;100912.84;;;19.24;49.82
28428;BME280;15662;49.128;8.520;2023-10-09T05:18:57;100916.47;;;19.23;49.90
28428;BME280;15662;49.128;8.520;2023-10-09T05:24:01;100930.69;;;19.25;49.93
28428;BME280;15662;49.128;8.520;2023-10-09T05:26:48;100929.69;;;19.28;50.03
28428;BME280;15662;49.128;8.520;2023-10-09T05:29:25;100927.75;;;19.30;50.03
28428;BME280;15662;49.128;8.520;2023-10-09T05:31:56;100929.69;;;19.28;50.03
28428;BME280;15662;49.128;8.520;2023-10-09T05:34:24;100924.22;;;19.29;50.30
28428;BME280;15662;49.128;8.520;2023-10-09T05:37:05;100935.78;;;19.31;50.19
28428;BME280;15662;49.128;8.520;2023-10-09T05:39:45;100925.94;;;19.30;50.08
28428;BME280;15662;49.128;8.520;2023-10-09T05:42:36;100931.31;;;19.30;50.26
28428;BME280;15662;49.128;8.520;2023-10-09T05:45:12;100925.16;;;19.28;50.37
28428;BME280;15662;49.128;8.520;2023-10-09T05:48:16;100945.66;;;19.31;50.08
28428;BME280;15662;49.128;8.520;2023-10-09T05:50:44;100950.06;;;19.32;50.23
28428;BME280;15662;49.128;8.520;2023-10-09T05:53:18;100956.31;;;19.32;50.14
28428;BME280;15662;49.128;8.520;2023-10-09T05:56:06;100949.88;;;19.35;50.39
28428;BME280;15662;49.128;8.520;2023-10-09T05:58:52;100948.34;;;19.31;50.29
28428;BME280;15662;49.128;8.520;2023-10-09T06:01:39;100954.41;;;19.34;50.31
28428;BME280;15662;49.128;8.520;2023-10-09T06:04:25;100958.81;;;19.36;50.33
28428;BME280;15662;49.128;8.520;2023-10-09T06:07:12;100959.78;;;19.34;50.36
28428;BME280;15662;49.128;8.520;2023-10-09T06:09:41;100972.81;;;19.42;50.50
28428;BME280;15662;49.128;8.520;2023-10-09T06:12:24;100971.88;;;19.43;50.53
28428;BME280;15662;49.128;8.520;2023-10-09T06:15:02;100985.84;;;19.50;50.40
28428;BME280;15662;49.128;8.520;2023-10-09T06:17:49;100989.34;;;19.52;50.41
28428;BME280;15662;49.128;8.520;2023-10-09T06:20:19;100990.97;;;19.54;50.67
28428;BME280;15662;49.128;8.520;2023-10-09T06:23:06;100992.50;;;19.60;50.62
28428;BME280;15662;49.128;8.520;2023-10-09T06:25:44;100988.72;;;19.64;50.41
28428;BME280;15662;49.128;8.520;2023-10-09T06:28:19;100991.06;;;19.70;50.36
28428;BME280;15662;49.128;8.520;2023-10-09T06:31:00;100997.09;;;19.75;50.58
28428;BME280;15662;49.128;8.520;2023-10-09T06:33:51;100996.13;;;19.76;50.34
28428;BME280;15662;49.128;8.520;2023-10-09T06:36:44;100993.09;;;19.82;50.49
28428;BME280;15662;49.128;8.520;2023-10-09T06:39:20;100987.47;;;19.87;50.29
28428;BME280;15662;49.128;8.520;2023-10-09T06:42:07;100982.88;;;19.89;50.41
28428;BME280;15662;49.128;8.520;2023-10-09T06:45:10;100984.28;;;19.96;50.18
28428;BME280;15662;49.128;8.520;2023-10-09T06:47:51;100979.56;;;20.00;50.17
28428;BME280;15662;49.128;8.520;2023-10-09T06:50:37;100973.41;;;19.98;50.62
28428;BME280;15662;49.128;8.520;2023-10-09T06:53:23;100988.00;;;20.09;50.26
28428;BME280;15662;49.128;8.520;2023-10-09T06:56:17;100979.94;;;20.09;50.55
28428;BME280;15662;49.128;8.520;2023-10-09T06:59:04;100980.22;;;20.21;50.25
28428;BME280;15662;49.128;8.520;2023-10-09T07:01:43;100982.91;;;20.21;50.32
28428;BME280;15662;49.128;8.520;2023-10-09T07:04:13;100986.56;;;20.20;50.41
28428;BME280;15662;49.128;8.520;2023-10-09T07:06:48;100994.97;;;20.29;50.44
28428;BME280;15662;49.128;8.520;2023-10-09T07:09:19;100992.28;;;20.29;50.41
28428;BME280;15662;49.128;8.520;2023-10-09T07:11:52;100983.06;;;20.33;50.41
28428;BME280;15662;49.128;8.520;2023-10-09T07:14:24;100993.53;;;20.40;50.24
28428;BME280;15662;49.128;8.520;2023-10-09T07:17:08;100994.03;;;20.46;50.14
28428;BME280;15662;49.128;8.520;2023-10-09T07:19:55;100981.69;;;20.42;50.30
28428;BME280;15662;49.128;8.520;2023-10-09T07:22:23;100984.06;;;20.48;50.12
28428;BME280;15662;49.128;8.520;2023-10-09T07:24:57;100977.66;;;20.51;50.03
28428;BME280;15662;49.128;8.520;2023-10-09T07:27:30;100977.38;;;20.55;50.24
28428;BME280;15662;49.128;8.520;2023-10-09T07:30:18;100979.09;;;20.41;50.29
28428;BME280;15662;49.128;8.520;2023-10-09T07:33:06;100981.03;;;20.54;50.46
28428;BME280;15662;49.128;8.520;2023-10-09T07:35:43;100976.84;;;20.65;50.08
28428;BME280;15662;49.128;8.520;2023-10-09T07:38:24;100978.22;;;20.72;49.81
28428;BME280;15662;49.128;8.520;2023-10-09T07:40:57;100980.81;;;20.73;49.86
28428;BME280;15662;49.128;8.520;2023-10-09T07:43:47;100985.66;;;20.82;49.99
28428;BME280;15662;49.128;8.520;2023-10-09T07:46:18;100982.44;;;20.92;49.93
28428;BME280;15662;49.128;8.520;2023-10-09T07:49:02;100989.88;;;21.02;49.69
28428;BME280;15662;49.128;8.520;2023-10-09T07:51:38;100987.72;;;21.09;49.73
28428;BME280;15662;49.128;8.520;2023-10-09T07:54:06;100991.75;;;21.16;49.64
28428;BME280;15662;49.128;8.520;2023-10-09T07:56:43;100987.56;;;21.26;49.67
28428;BME280;15662;49.128;8.520;2023-10-09T07:59:15;101000.78;;;21.31;49.43
28428;BME280;15662;49.128;8.520;2023-10-09T08:01:49;101001.28;;;21.37;49.34
28428;BME280;15662;49.128;8.520;2023-10-09T08:04:24;101004.56;;;21.43;49.27
28428;BME280;15662;49.128;8.520;2023-10-09T08:07:11;101011.50;;;21.47;49.20
28428;BME280;15662;49.128;8.520;2023-10-09T08:10:13;101011.19;;;21.37;49.67
28428;BME280;15662;49.128;8.520;2023-10-09T08:12:46;101011.91;;;21.55;49.28
28428;BME280;15662;49.128;8.520;2023-10-09T08:15:15;101011.53;;;21.61;49.20
28428;BME280;15662;49.128;8.520;2023-10-09T08:20:31;101008.75;;;21.77;48.81
28428;BME280;15662;49.128;8.520;2023-10-09T08:23:18;101007.59;;;21.81;48.72
28428;BME280;15662;49.128;8.520;2023-10-09T08:26:03;101008.84;;;21.89;48.68
28428;BME280;15662;49.128;8.520;2023-10-09T08:28:43;101013.22;;;21.78;48.99
28428;BME280;15662;49.128;8.520;2023-10-09T08:31:13;101015.91;;;21.92;48.76
28428;BME280;15662;49.128;8.520;2023-10-09T08:33:47;101011.66;;;22.02;48.57
28428;BME280;15662;49.128;8.520;2023-10-09T08:36:29;101010.41;;;22.08;48.50
28428;BME280;15662;49.128;8.520;2023-10-09T08:39:04;101006.63;;;22.10;48.31
28428;BME280;15662;49.128;8.520;2023-10-09T08:41:45;101020.38;;;22.22;48.24
28428;BME280;15662;49.128;8.520;2023-10-09T08:44:12;101019.84;;;22.29;48.25
28428;BME280;15662;49.128;8.520;2023-10-09T08:46:43;101011.47;;;22.34;48.03
28428;BME280;15662;49.128;8.520;2023-10-09T08:49:12;101010.19;;;22.39;48.03
28428;BME280;15662;49.128;8.520;2023-10-09T08:51:42;101009.41;;;22.52;47.89
28428;BME280;15662;49.128;8.520;2023-10-09T08:54:10;101006.19;;;22.59;47.71
28428;BME280;15662;49.128;8.520;2023-10-09T08:56:40;101008.47;;;22.65;47.46
28428;BME280;15662;49.128;8.520;2023-10-09T08:59:19;101008.16;;;22.70;47.45
28428;BME280;15662;49.128;8.520;2023-10-09T09:01:51;101009.59;;;22.76;47.20
28428;BME280;15662;49.128;8.520;2023-10-09T09:04:40;101016.34;;;22.83;47.10
28428;BME280;15662;49.128;8.520;2023-10-09T09:07:28;101016.22;;;22.84;47.04
28428;BME280;15662;49.128;8.520;2023-10-09T09:10:00;101021.06;;;22.94;47.27
28428;BME280;15662;49.128;8.520;2023-10-09T09:12:49;101017.84;;;23.01;47.22
28428;BME280;15662;49.128;8.520;2023-10-09T09:15:28;101017.97;;;23.12;47.00
28428;BME280;15662;49.128;8.520;2023-10-09T09:18:07;101019.09;;;23.23;46.80
28428;BME280;15662;49.128;8.520;2023-10-09T09:20:40;101024.06;;;23.29;46.64
28428;BME280;15662;49.128;8.520;2023-10-09T09:23:10;101026.03;;;23.39;46.72
28428;BME280;15662;49.128;8.520;2023-10-09T09:28:27;101029.75;;;23.51;46.32
28428;BME280;15662;49.128;8.520;2023-10-09T09:31:08;101029.09;;;23.60;45.97
28428;BME280;15662;49.128;8.520;2023-10-09T09:33:57;101025.88;;;23.68;45.89
28428;BME280;15662;49.128;8.520;2023-10-09T09:36:34;101021.66;;;23.77;46.29
28428;BME280;15662;49.128;8.520;2023-10-09T09:39:02;101024.16;;;23.80;46.09
28428;BME280;15662;49.128;8.520;2023-10-09T09:41:32;101034.78;;;23.96;46.12
28428;BME280;15662;49.128;8.520;2023-10-09T09:44:01;101033.25;;;24.04;45.89
28428;BME280;15662;49.128;8.520;2023-10-09T09:46:33;101033.00;;;24.20;45.77
28428;BME280;15662;49.128;8.520;2023-10-09T09:49:05;101026.28;;;24.26;45.99
28428;BME280;15662;49.128;8.520;2023-10-09T09:51:49;101032.97;;;24.33;45.76
28428;BME280;15662;49.128;8.520;2023-10-09T09:54:17;101012.16;;;24.33;45.52
28428;BME280;15662;49.128;8.520;2023-10-09T09:56:45;101016.84;;;24.44;45.13
28428;BME280;15662;49.128;8.520;2023-10-09T09:59:18;101014.88;;;24.46;45.15
28428;BME280;15662;49.128;8.520;2023-10-09T10:01:59;101004.69;;;24.50;44.87
28428;BME280;15662;49.128;8.520;2023-10-09T10:04:39;101009.75;;;24.54;44.54
28428;BME280;15662;49.128;8.520;2023-10-09T10:07:09;101009.75;;;24.54;44.78
28428;BME280;15662;49.128;8.520;2023-10-09T10:09:42;101002.50;;;24.55;44.54
28428;BME280;15662;49.128;8.520;2023-10-09T10:15:14;101017.13;;;24.52;44.64
28428;BME280;15662;49.128;8.520;2023-10-09T10:20:27;101016.78;;;24.57;44.40
28428;BME280;15662;49.128;8.520;2023-10-09T10:23:15;101009.59;;;24.44;45.30
28428;BME280;15662;49.128;8.520;2023-10-09T10:25:54;101005.72;;;24.60;45.00
28428;BME280;15662;49.128;8.520;2023-10-09T10:28:28;100995.59;;;24.75;44.70
28428;BME280;15662;49.128;8.520;2023-10-09T10:30:57;100992.78;;;24.87;44.55
28428;BME280;15662;49.128;8.520;2023-10-09T10:34:09;100992.19;;;24.84;45.17
28428;BME280;15662;49.128;8.520;2023-10-09T10:36:38;100995.31;;;25.02;45.03
28428;BME280;15662;49.128;8.520;2023-10-09T10:39:10;101000.38;;;25.19;44.59
28428;BME280;15662;49.128;8.520;2023-10-09T10:41:39;101008.25;;;25.22;44.15
28428;BME280;15662;49.128;8.520;2023-10-09T10:44:31;101011.59;;;25.26;44.12
28428;BME280;15662;49.128;8.520;2023-10-09T10:47:06;101015.19;;;25.26;43.97
28428;BME280;15662;49.128;8.520;2023-10-09T10:49:52;100986.81;;;25.19;43.77
28428;BME280;15662;49.128;8.520;2023-10-09T10:52:27;101003.72;;;25.23;43.75
28428;BME280;15662;49.128;8.520;2023-10-09T10:55:14;101002.94;;;25.20;43.58
28428;BME280;15662;49.128;8.520;2023-10-09T10:57:57;100997.16;;;25.14;43.58
28428;BME280;15662;49.128;8.520;2023-10-09T11:00:28;101002.94;;;24.96;44.12
28428;BME280;15662;49.128;8.520;2023-10-09T11:03:22;101006.81;;;25.05;43.97
28428;BME280;15662;49.128;8.520;2023-10-09T11:06:27;101005.41;;;25.12;44.21
28428;BME280;15662;49.128;8.520;2023-10-09T11:09:09;101006.03;;;25.16;43.81
28428;BME280;15662;49.128;8.520;2023-10-09T11:11:50;101005.78;;;25.19;43.74
28428;BME280;15662;49.128;8.520;2023-10-09T11:14:18;101002.81;;;25.22;44.01
28428;BME280;15662;49.128;8.520;2023-10-09T11:16:51;101016.03;;;25.27;43.87
28428;BME280;15662;49.128;8.520;2023-10-09T11:19:26;100994.97;;;25.30;43.68
28428;BME280;15662;49.128;8.520;2023-10-09T11:22:00;100979.31;;;25.34;43.73
28428;BME280;15662;49.128;8.520;2023-10-09T11:24:35;101001.41;;;25.40;43.58
28428;BME280;15662;49.128;8.520;2023-10-09T11:27:05;100989.69;;;25.40;43.64
28428;BME280;15662;49.128;8.520;2023-10-09T11:29:35;101003.63;;;25.46;43.31
28428;BME280;15662;49.128;8.520;2023-10-09T11:32:20;101006.84;;;25.52;43.50
28428;BME280;15662;49.128;8.520;2023-10-09T11:35:13;101008.47;;;25.54;43.45
28428;BME280;15662;49.128;8.520;2023-10-09T11:37:57;101000.47;;;25.53;43.54
28428;BME280;15662;49.128;8.520;2023-10-09T11:40:33;100991.97;;;25.57;43.57
28428;BME280;15662;49.128;8.520;2023-10-09T11:43:20;100979.97;;;25.60;43.47
28428;BME280;15662;49.128;8.520;2023-10-09T11:46:14;100961.84;;;25.60;43.65
28428;BME280;15662;49.128;8.520;2023-10-09T11:49:06;100957.41;;;25.70;43.69
28428;BME280;15662;49.128;8.520;2023-10-09T11:51:47;100959.03;;;25.73;43.40
28428;BME280;15662;49.128;8.520;2023-10-09T11:54:38;100945.97;;;25.78;43.53
28428;BME280;15662;49.128;8.520;2023-10-09T11:57:05;100950.16;;;25.93;43.20
28428;BME280;15662;49.128;8.520;2023-10-09T11:59:34;100937.56;;;26.04;43.36
28428;BME280;15662;49.128;8.520;2023-10-09T12:02:08;100929.53;;;26.13;43.00
28428;BME280;15662;49.128;8.520;2023-10-09T12:04:40;100928.75;;;26.22;42.48
28428;BME280;15662;49.128;8.520;2023-10-09T12:07:13;100920.22;;;26.27;42.42
28428;BME280;15662;49.128;8.520;2023-10-09T12:09:41;100938.22;;;26.39;42.29
28428;BME280;15662;49.128;8.520;2023-10-09T12:12:09;100937.63;;;26.47;41.91
28428;BME280;15662;49.128;8.520;2023-10-09T12:14:37;100925.38;;;26.53;41.96
28428;BME280;15662;49.128;8.520;2023-10-09T12:17:08;100912.41;;;26.56;41.58
28428;BME280;15662;49.128;8.520;2023-10-09T12:19:38;100901.13;;;26.61;41.54
28428;BME280;15662;49.128;8.520;2023-10-09T12:22:08;100902.84;;;26.62;41.32
28428;BME280;15662;49.128;8.520;2023-10-09T12:24:43;100907.53;;;26.60;41.27
28428;BME280;15662;49.128;8.520;2023-10-09T12:27:11;100910.25;;;26.60;40.73
28428;BME280;15662;49.128;8.520;2023-10-09T12:29:39;100908.44;;;26.60;40.56
28428;BME280;15662;49.128;8.520;2023-10-09T12:32:15;100906.56;;;26.61;40.57
28428;BME280;15662;49.128;8.520;2023-10-09T12:34:47;100902.25;;;26.58;40.76
28428;BME280;15662;49.128;8.520;2023-10-09T12:37:18;100901.59;;;26.66;40.16
28428;BME280;15662;49.128;8.520;2023-10-09T12:39:48;100888.97;;;26.65;39.79
28428;BME280;15662;49.128;8.520;2023-10-09T12:42:17;100881.72;;;26.65;39.55
28428;BME280;15662;49.128;8.520;2023-10-09T12:44:45;100883.44;;;26.66;39.53
28428;BME280;15662;49.128;8.520;2023-10-09T12:47:13;100882.44;;;26.67;39.21
28428;BME280;15662;49.128;8.520;2023-10-09T12:49:43;100876.00;;;26.68;39.63
28428;BME280;15662;49.128;8.520;2023-10-09T12:52:12;100884.50;;;26.75;39.46
28428;BME280;15662;49.128;8.520;2023-10-09T12:54:44;100878.06;;;26.76;39.27
28428;BME280;15662;49.128;8.520;2023-10-09T12:57:14;100875.34;;;26.76;39.07
28428;BME280;15662;49.128;8.520;2023-10-09T12:59:42;100892.59;;;26.86;38.99
28428;BME280;15662;49.128;8.520;2023-10-09T13:02:15;100895.19;;;26.88;39.04
28428;BME280;15662;49.128;8.520;2023-10-09T13:04:57;100893.59;;;26.85;39.07
28428;BME280;15662;49.128;8.520;2023-10-09T13:07:27;100900.63;;;26.88;38.64
28428;BME280;15662;49.128;8.520;2023-10-09T13:09:55;100899.50;;;26.90;38.19
28428;BME280;15662;49.128;8.520;2023-10-09T13:12:40;100896.03;;;26.88;38.03
28428;BME280;15662;49.128;8.520;2023-10-09T13:15:11;100892.47;;;26.88;38.19
28428;BME280;15662;49.128;8.520;2023-10-09T13:17:39;100895.94;;;26.90;37.61
28428;BME280;15662;49.128;8.520;2023-10-09T13:20:08;100884.06;;;26.91;37.40
28428;BME280;15662;49.128;8.520;2023-10-09T13:22:43;100865.59;;;26.94;37.28
28428;BME280;15662;49.128;8.520;2023-10-09T13:25:12;100877.34;;;26.95;37.34
28428;BME280;15662;49.128;8.520;2023-10-09T13:28:02;100870.06;;;26.95;37.31
28428;BME280;15662;49.128;8.520;2023-10-09T13:30:32;100857.16;;;26.97;36.96
28428;BME280;15662;49.128;8.520;2023-10-09T13:33:08;100866.94;;;27.00;37.09
28428;BME280;15662;49.128;8.520;2023-10-09T13:35:37;100861.34;;;27.01;37.13
28428;BME280;15662;49.128;8.520;2023-10-09T13:38:16;100858.22;;;27.06;37.07
28428;BME280;15662;49.128;8.520;2023-10-09T13:40:44;100869.00;;;27.08;36.97
28428;BME280;15662;49.128;8.520;2023-10-09T13:43:12;100875.19;;;27.10;37.08
28428;BME280;15662;49.128;8.520;2023-10-09T13:45:44;100854.41;;;27.09;37.08
28428;BME280;15662;49.128;8.520;2023-10-09T13:48:17;100850.31;;;27.14;37.16
28428;BME280;15662;49.128;8.520;2023-10-09T13:50:45;100850.31;;;27.14;36.88
28428;BME280;15662;49.128;8.520;2023-10-09T13:53:14;100853.47;;;27.19;36.48